Time;durP1;ratioP1;P1;durP2;ratioP2;P2;SDS_P1;SDS_P2;PMS_P1;PMS_P2;Temp;Humidity;BMP_temperature;BMP_pressure;BME280_temperature;BME280_humidity;BME280_pressure;Samples;Min_cycle;Max_cycle;Signal;HPM_P1;HPM_P2
2023/03/12 00:00:34;;;;;;;3.67;0.88;;;22.30;58.30;;;;;;5029782;28;20041;-72
2023/03/12 00:03:01;;;;;;;0.80;0.60;;;22.20;60.00;;;;;;5031111;28;20029;-72
2023/03/12 00:05:27;;;;;;;3.15;0.70;;;22.30;58.30;;;;;;5031062;28;20071;-72
2023/03/12 00:07:53;;;;;;;1.10;1.00;;;22.30;61.10;;;;;;5031351;28;20029;-71
2023/03/12 00:10:20;;;;;;;1.38;1.00;;;22.30;52.10;;;;;;5030550;28;20431;-72
2023/03/12 00:12:46;;;;;;;2.63;1.45;;;22.10;61.30;;;;;;5031143;28;20033;-72
2023/03/12 00:15:12;;;;;;;0.60;0.60;;;22.20;58.50;;;;;;5031261;28;20060;-72
2023/03/12 00:17:38;;;;;;;3.50;1.13;;;22.20;57.40;;;;;;5031106;28;20064;-72
2023/03/12 00:20:05;;;;;;;1.30;1.20;;;22.20;60.80;;;;;;5030809;28;20048;-72
2023/03/12 00:22:32;;;;;;;1.35;1.25;;;22.40;60.40;;;;;;5030431;28;20033;-72
2023/03/12 00:24:58;;;;;;;1.42;1.15;;;22.40;60.50;;;;;;5030801;28;20045;-72
2023/03/12 00:27:25;;;;;;;1.85;1.48;;;22.20;58.80;;;;;;5030902;28;20037;-72
2023/03/12 00:29:51;;;;;;;1.70;1.55;;;22.30;54.70;;;;;;5030639;28;20033;-72
2023/03/12 00:32:17;;;;;;;1.55;1.20;;;22.20;57.30;;;;;;5030718;28;20026;-72
2023/03/12 00:34:49;;;;;;;2.78;1.70;;;22.20;61.60;;;;;;5030873;28;20021;-72
2023/03/12 00:37:14;;;;;;;0.85;0.75;;;22.20;58.80;;;;;;5030520;28;20547;-72
2023/03/12 00:39:40;;;;;;;1.45;1.33;;;22.20;58.60;;;;;;5029293;28;20030;-72
2023/03/12 00:42:06;;;;;;;4.38;1.52;;;22.10;57.00;;;;;;5030781;28;20034;-72
2023/03/12 00:44:32;;;;;;;1.48;0.98;;;22.10;58.80;;;;;;5029661;28;20041;-72
2023/03/12 00:46:59;;;;;;;1.17;1.00;;;22.10;60.60;;;;;;5029320;28;20034;-72
2023/03/12 00:49:25;;;;;;;1.80;1.25;;;22.10;58.60;;;;;;5030315;28;20432;-72
2023/03/12 00:51:51;;;;;;;2.63;1.60;;;22.00;59.50;;;;;;5029374;28;20029;-72
2023/03/12 00:54:17;;;;;;;1.35;1.23;;;22.00;61.90;;;;;;5029218;28;20413;-72
2023/03/12 00:56:45;;;;;;;2.45;1.63;;;22.10;60.50;;;;;;5030948;28;20044;-72
2023/03/12 00:59:13;;;;;;;6.72;1.50;;;22.00;57.80;;;;;;5030085;28;20041;-72
2023/03/12 01:01:39;;;;;;;1.33;1.08;;;22.00;59.70;;;;;;5034212;28;20151;-72
2023/03/12 01:04:05;;;;;;;1.20;1.05;;;22.10;60.00;;;;;;5033014;28;20148;-72
2023/03/12 01:06:31;;;;;;;1.35;1.25;;;22.10;60.60;;;;;;5034035;28;20029;-71
2023/03/12 01:08:57;;;;;;;2.08;1.30;;;21.90;60.30;;;;;;5034312;28;20508;-72
2023/03/12 01:11:23;;;;;;;2.95;1.58;;;21.90;59.90;;;;;;5016399;28;20417;-72
2023/03/12 01:13:49;;;;;;;2.00;1.30;;;22.00;62.10;;;;;;5033892;28;20041;-72
2023/03/12 01:16:16;;;;;;;1.25;1.10;;;22.00;56.50;;;;;;5034112;28;20041;-72
2023/03/12 01:18:42;;;;;;;1.60;1.10;;;22.00;61.20;;;;;;5032411;28;20454;-72
2023/03/12 01:21:08;;;;;;;1.98;1.35;;;21.90;61.50;;;;;;5033487;28;20474;-72
2023/03/12 01:23:34;;;;;;;1.60;1.50;;;21.90;56.70;;;;;;5033997;28;20037;-72
2023/03/12 01:26:00;;;;;;;3.13;1.75;;;21.90;62.60;;;;;;5033651;28;20037;-72
2023/03/12 01:28:26;;;;;;;1.77;1.48;;;21.80;61.10;;;;;;5033965;28;20045;-72
2023/03/12 01:30:52;;;;;;;1.48;1.38;;;21.90;56.70;;;;;;5032166;28;20037;-72
2023/03/12 01:33:21;;;;;;;1.20;1.10;;;22.00;58.90;;;;;;5033638;28;20037;-72
2023/03/12 01:35:47;;;;;;;2.17;1.65;;;21.80;60.80;;;;;;5031771;28;20116;-72
2023/03/12 01:38:15;;;;;;;1.48;1.30;;;21.70;59.90;;;;;;5033692;28;20045;-72
2023/03/12 01:40:42;;;;;;;1.15;1.00;;;21.70;57.50;;;;;;5033415;28;20061;-72
2023/03/12 01:43:25;;;;;;;1.35;1.23;;;21.70;62.80;;;;;;5033656;28;20026;-72
2023/03/12 01:46:06;;;;;;;0.90;0.90;;;21.90;59.70;;;;;;5065427;28;20539;-71
2023/03/12 01:48:39;;;;;;;1.10;0.90;;;21.80;60.90;;;;;;5032171;28;20041;-72
2023/03/12 01:51:06;;;;;;;2.88;1.50;;;21.90;61.30;;;;;;5031707;28;20477;-72
2023/03/12 01:53:33;;;;;;;1.92;1.60;;;21.80;61.40;;;;;;5065080;28;20039;-71
2023/03/12 01:56:00;;;;;;;1.40;1.30;;;21.90;62.40;;;;;;5065045;28;20083;-71
2023/03/12 01:58:31;;;;;;;1.90;1.30;;;21.80;61.40;;;;;;5031902;28;20065;-71
2023/03/12 02:00:57;;;;;;;1.05;0.85;;;21.90;60.80;;;;;;5064813;28;20037;-71
2023/03/12 02:03:23;;;;;;;3.63;2.15;;;21.90;58.70;;;;;;5031731;28;20037;-71
2023/03/12 02:06:12;;;;;;;1.50;1.40;;;21.80;57.00;;;;;;5047581;28;20073;-71
2023/03/12 02:08:43;;;;;;;1.85;1.65;;;21.70;58.40;;;;;;5032990;28;20112;-71
2023/03/12 02:11:10;;;;;;;1.70;1.60;;;21.90;58.50;;;;;;5030192;28;20490;-72
2023/03/12 02:13:36;;;;;;;1.50;1.40;;;21.70;57.50;;;;;;5031437;28;20037;-71
2023/03/12 02:16:03;;;;;;;2.67;2.00;;;21.80;58.40;;;;;;5031709;28;20041;-72
2023/03/12 02:18:30;;;;;;;3.33;1.55;;;21.80;58.20;;;;;;5047077;28;20113;-72
2023/03/12 02:21:12;;;;;;;1.63;1.52;;;21.70;59.90;;;;;;5049910;28;20083;-72
2023/03/12 02:24:00;;;;;;;1.73;1.58;;;21.80;58.30;;;;;;5050173;28;20033;-71
2023/03/12 02:26:29;;;;;;;1.40;1.02;;;21.60;60.10;;;;;;5049952;28;20037;-72
2023/03/12 02:28:59;;;;;;;3.83;1.50;;;21.70;59.00;;;;;;5050051;28;20036;-71
2023/03/12 02:31:30;;;;;;;1.42;1.20;;;21.70;59.30;;;;;;5049521;28;20091;-71
2023/03/12 02:33:59;;;;;;;2.88;1.60;;;21.70;59.40;;;;;;5050025;28;20115;-72
2023/03/12 02:36:26;;;;;;;1.30;1.20;;;21.60;58.50;;;;;;5049672;28;20044;-71
2023/03/12 02:38:54;;;;;;;2.58;1.50;;;21.50;60.60;;;;;;5033281;28;20036;-72
2023/03/12 02:41:25;;;;;;;2.78;1.55;;;21.60;58.40;;;;;;5032882;28;20072;-72
2023/03/12 02:43:58;;;;;;;4.35;1.40;;;21.50;59.70;;;;;;5032981;28;20390;-71
2023/03/12 02:46:25;;;;;;;1.23;1.08;;;21.50;56.80;;;;;;5032850;28;20045;-72
2023/03/12 02:48:52;;;;;;;4.30;1.73;;;21.40;59.60;;;;;;5049414;28;20047;-72
2023/03/12 02:51:18;;;;;;;1.50;1.40;;;21.50;61.80;;;;;;5045240;28;20473;-71
2023/03/12 02:53:45;;;;;;;4.20;1.17;;;21.50;61.10;;;;;;5032061;28;20052;-72
2023/03/12 02:56:11;;;;;;;2.58;1.73;;;21.60;57.50;;;;;;5030851;28;20116;-72
2023/03/12 02:58:38;;;;;;;1.30;1.20;;;21.70;57.70;;;;;;5030638;28;20044;-71
2023/03/12 03:01:04;;;;;;;1.65;1.25;;;21.60;56.80;;;;;;5030526;28;20492;-72
2023/03/12 03:03:30;;;;;;;1.85;1.75;;;21.60;60.30;;;;;;5030603;28;20080;-72
2023/03/12 03:05:56;;;;;;;1.42;1.15;;;21.40;60.20;;;;;;5030629;28;20038;-72
2023/03/12 03:08:26;;;;;;;1.60;1.30;;;21.50;61.70;;;;;;5030329;28;20037;-71
2023/03/12 03:10:53;;;;;;;1.35;1.25;;;21.50;58.00;;;;;;5031507;28;20119;-71
2023/03/12 03:13:19;;;;;;;2.22;1.70;;;21.60;60.00;;;;;;5031592;28;20084;-71
2023/03/12 03:15:45;;;;;;;0.60;0.60;;;21.50;55.70;;;;;;5031243;28;20033;-71
2023/03/12 03:18:11;;;;;;;1.58;1.30;;;21.50;60.80;;;;;;5031444;28;20537;-71
2023/03/12 03:20:37;;;;;;;2.08;0.95;;;21.40;60.60;;;;;;5030073;28;20048;-72
2023/03/12 03:23:03;;;;;;;2.78;1.77;;;21.40;58.10;;;;;;5030058;28;20041;-72
2023/03/12 03:25:30;;;;;;;1.58;1.35;;;21.40;56.90;;;;;;5031635;28;20037;-72
2023/03/12 03:27:56;;;;;;;0.93;0.85;;;21.40;60.10;;;;;;5030332;28;20079;-71
2023/03/12 03:30:22;;;;;;;1.65;1.55;;;21.50;56.80;;;;;;5029880;28;20049;-72
2023/03/12 03:32:50;;;;;;;1.33;1.17;;;21.50;57.30;;;;;;5030364;28;20037;-71
2023/03/12 03:35:17;;;;;;;1.88;1.42;;;21.50;59.30;;;;;;5030354;28;20059;-72
2023/03/12 03:37:43;;;;;;;2.22;2.03;;;21.60;57.50;;;;;;5029925;28;20539;-71
2023/03/12 03:40:11;;;;;;;1.48;1.38;;;21.60;57.90;;;;;;5029887;28;20048;-72
2023/03/12 03:42:38;;;;;;;1.25;1.02;;;21.60;61.40;;;;;;5013574;28;20191;-71
2023/03/12 03:45:06;;;;;;;1.58;1.45;;;21.70;58.20;;;;;;5029606;28;20175;-72
2023/03/12 03:47:32;;;;;;;1.27;1.17;;;21.70;58.10;;;;;;5029944;28;20040;-72
2023/03/12 03:49:58;;;;;;;1.33;1.23;;;21.60;57.40;;;;;;5029628;28;20726;-71
2023/03/12 03:52:24;;;;;;;1.85;1.55;;;21.60;58.60;;;;;;5031115;28;20037;-72
2023/03/12 03:54:52;;;;;;;6.40;1.60;;;21.50;57.60;;;;;;5031124;28;20041;-72
2023/03/12 03:57:18;;;;;;;1.60;1.15;;;21.50;59.40;;;;;;5029789;28;20061;-71
2023/03/12 03:59:44;;;;;;;1.77;1.48;;;21.40;59.30;;;;;;5031021;28;20068;-71
2023/03/12 04:02:10;;;;;;;1.52;1.42;;;21.50;56.70;;;;;;5063242;28;20044;-71
2023/03/12 04:04:38;;;;;;;2.00;1.23;;;21.40;60.70;;;;;;5048273;28;20049;-71
2023/03/12 04:07:04;;;;;;;1.98;1.58;;;21.40;58.20;;;;;;5031746;28;20052;-71
2023/03/12 04:09:31;;;;;;;2.95;1.80;;;21.50;56.60;;;;;;5031675;28;20124;-72
2023/03/12 04:11:57;;;;;;;1.55;1.45;;;21.40;59.70;;;;;;5031584;28;20057;-71
2023/03/12 04:14:23;;;;;;;2.13;1.77;;;21.30;56.70;;;;;;5031738;28;20049;-71
2023/03/12 04:16:49;;;;;;;2.58;1.60;;;21.20;59.40;;;;;;5031888;28;20048;-71
2023/03/12 04:19:15;;;;;;;1.45;1.35;;;21.30;61.70;;;;;;5031533;28;20049;-71
2023/03/12 04:21:41;;;;;;;2.40;1.67;;;21.20;61.10;;;;;;5031360;28;20036;-72
2023/03/12 04:24:13;;;;;;;2.55;1.88;;;21.30;59.30;;;;;;5068124;28;20063;-72
2023/03/12 04:26:41;;;;;;;1.48;1.25;;;21.20;58.10;;;;;;5051523;28;20094;-71
2023/03/12 04:29:07;;;;;;;2.08;1.58;;;21.30;58.00;;;;;;5051134;28;20040;-71
2023/03/12 04:31:33;;;;;;;1.98;1.27;;;21.30;58.20;;;;;;5051257;28;20039;-70
2023/03/12 04:33:59;;;;;;;3.90;1.77;;;21.20;58.70;;;;;;5052371;28;20057;-71
2023/03/12 04:36:26;;;;;;;4.78;1.92;;;21.20;57.80;;;;;;5055404;28;20079;-71
2023/03/12 04:38:54;;;;;;;2.08;1.85;;;21.10;59.50;;;;;;5055450;28;20127;-71
2023/03/12 04:41:25;;;;;;;2.88;1.27;;;21.20;60.70;;;;;;5055143;28;20040;-72
2023/03/12 04:43:57;;;;;;;2.08;1.77;;;21.10;57.80;;;;;;5071744;28;20090;-72
2023/03/12 04:46:23;;;;;;;2.40;1.80;;;20.90;59.20;;;;;;5055128;28;20036;-72
2023/03/12 04:48:49;;;;;;;2.72;2.00;;;21.10;58.70;;;;;;5055004;28;20098;-71
2023/03/12 04:51:16;;;;;;;2.13;1.48;;;21.20;59.80;;;;;;5014700;28;20480;-71
2023/03/12 04:53:42;;;;;;;2.83;1.75;;;21.10;58.00;;;;;;5031563;28;20049;-71
2023/03/12 04:56:09;;;;;;;1.90;1.80;;;21.00;59.80;;;;;;5013428;28;20129;-71
2023/03/12 04:58:36;;;;;;;4.82;2.10;;;21.10;59.90;;;;;;4995713;28;20038;-71
2023/03/12 05:01:04;;;;;;;0.77;0.75;;;21.20;59.10;;;;;;4995579;28;20474;-71
2023/03/12 05:03:31;;;;;;;3.92;2.30;;;21.10;54.10;;;;;;4979517;28;20041;-71
2023/03/12 05:05:58;;;;;;;1.45;1.08;;;20.90;51.80;;;;;;5011867;28;20213;-71
2023/03/12 05:08:24;;;;;;;2.80;1.95;;;20.90;56.80;;;;;;5011728;28;20065;-71
2023/03/12 05:10:50;;;;;;;2.38;1.90;;;20.80;52.90;;;;;;5027999;28;20513;-71
2023/03/12 05:13:21;;;;;;;1.65;1.55;;;20.90;59.90;;;;;;4995337;28;20128;-71
2023/03/12 05:15:51;;;;;;;2.08;1.77;;;21.00;59.20;;;;;;5011507;28;20057;-71
2023/03/12 05:18:20;;;;;;;1.70;1.60;;;21.20;54.80;;;;;;5028177;28;20096;-70
2023/03/12 05:20:46;;;;;;;2.65;1.70;;;21.10;61.10;;;;;;5030876;28;20128;-73
2023/03/12 05:23:12;;;;;;;4.20;2.00;;;21.50;63.30;;;;;;5031169;28;20117;-72
2023/03/12 05:25:39;;;;;;;3.47;1.98;;;22.10;61.80;;;;;;5031279;28;20077;-72
2023/03/12 05:28:06;;;;;;;1.63;1.25;;;22.50;60.00;;;;;;5031194;28;20476;-73
2023/03/12 05:30:32;;;;;;;0.98;0.95;;;22.60;59.00;;;;;;5031028;28;20041;-75
2023/03/12 05:32:58;;;;;;;2.85;1.67;;;22.70;54.70;;;;;;5031058;28;20041;-77
2023/03/12 05:35:24;;;;;;;3.30;2.20;;;22.60;52.90;;;;;;5030793;28;20136;-76
2023/03/12 05:37:50;;;;;;;2.70;1.80;;;22.40;47.40;;;;;;5031067;28;20040;-75
2023/03/12 05:40:16;;;;;;;3.42;2.22;;;22.00;47.70;;;;;;5030195;28;20046;-73
2023/03/12 05:42:43;;;;;;;3.03;2.00;;;22.00;48.90;;;;;;5031074;28;20543;-75
2023/03/12 05:45:09;;;;;;;2.35;1.65;;;22.00;52.40;;;;;;5030705;28;20064;-75
2023/03/12 05:47:39;;;;;;;1.98;1.55;;;21.80;50.30;;;;;;5031083;28;20071;-73
2023/03/12 05:50:05;;;;;;;1.88;1.58;;;21.70;53.10;;;;;;5014175;28;20025;-75
2023/03/12 05:52:32;;;;;;;3.22;2.08;;;21.60;52.30;;;;;;5018010;28;20056;-74
2023/03/12 05:54:58;;;;;;;1.85;1.52;;;21.80;54.30;;;;;;5050707;28;20037;-74
2023/03/12 05:57:24;;;;;;;2.15;1.27;;;21.60;52.50;;;;;;5027118;28;20406;-76
2023/03/12 05:59:50;;;;;;;1.77;1.23;;;21.70;56.50;;;;;;4994539;28;20057;-74
2023/03/12 06:02:16;;;;;;;2.38;1.58;;;21.80;54.80;;;;;;4994202;28;20136;-74
2023/03/12 06:04:43;;;;;;;1.67;1.30;;;21.70;56.40;;;;;;5027145;28;20049;-76
2023/03/12 06:07:09;;;;;;;1.67;1.45;;;21.80;54.00;;;;;;4994332;28;20046;-76
2023/03/12 06:09:35;;;;;;;2.33;1.42;;;21.90;49.80;;;;;;4994458;28;20042;-76
2023/03/12 06:12:02;;;;;;;1.05;0.95;;;22.00;48.40;;;;;;4977528;28;20072;-76
2023/03/12 06:14:29;;;;;;;2.83;1.27;;;22.00;49.70;;;;;;5010710;28;20160;-75
2023/03/12 06:16:56;;;;;;;5.10;2.17;;;22.20;48.30;;;;;;4994169;28;20050;-76
2023/03/12 06:19:22;;;;;;;2.63;1.75;;;22.40;44.60;;;;;;5026882;28;20044;-76
2023/03/12 06:21:49;;;;;;;2.35;1.67;;;22.40;42.70;;;;;;5010248;28;20498;-76
2023/03/12 06:24:15;;;;;;;2.78;1.63;;;22.30;45.20;;;;;;4994092;28;20030;-76
2023/03/12 06:26:44;;;;;;;2.88;1.80;;;22.30;47.80;;;;;;4994062;28;20032;-75
2023/03/12 06:29:10;;;;;;;3.95;3.33;;;22.40;50.90;;;;;;5012240;28;20062;-75
2023/03/12 06:31:38;;;;;;;3.40;2.67;;;22.40;46.90;;;;;;5012574;28;20038;-75
2023/03/12 06:34:05;;;;;;;2.22;2.05;;;22.40;49.10;;;;;;5028131;28;20029;-76
2023/03/12 06:36:30;;;;;;;1.60;1.50;;;22.50;49.40;;;;;;5020412;28;20037;-75
2023/03/12 06:38:56;;;;;;;2.38;1.88;;;22.40;48.30;;;;;;5029992;28;20096;-76
2023/03/12 06:41:22;;;;;;;2.10;1.35;;;22.30;47.30;;;;;;5032141;28;20068;-74
2023/03/12 06:43:49;;;;;;;1.85;1.40;;;22.50;47.40;;;;;;5032357;28;20036;-75
2023/03/12 06:46:17;;;;;;;2.78;1.30;;;22.30;43.70;;;;;;5031768;28;20059;-75
2023/03/12 06:48:45;;;;;;;2.20;1.10;;;22.40;44.30;;;;;;5032039;28;20029;-77
2023/03/12 06:51:13;;;;;;;3.08;1.20;;;22.40;48.60;;;;;;5032027;28;20084;-77
2023/03/12 06:53:39;;;;;;;2.13;1.33;;;22.30;49.70;;;;;;5032103;28;20155;-76
2023/03/12 06:56:05;;;;;;;2.63;0.90;;;22.40;53.90;;;;;;5030729;28;20067;-75
2023/03/12 06:58:31;;;;;;;0.80;0.80;;;22.30;54.00;;;;;;5030210;28;20037;-74
2023/03/12 07:00:57;;;;;;;2.08;0.75;;;22.20;51.60;;;;;;5030591;28;20554;-75
2023/03/12 07:03:23;;;;;;;1.60;1.30;;;22.20;54.90;;;;;;5030531;28;20030;-74
2023/03/12 07:05:50;;;;;;;2.15;1.30;;;22.10;53.00;;;;;;5030662;28;20087;-74
2023/03/12 07:08:17;;;;;;;0.73;0.73;;;22.20;50.60;;;;;;5030757;28;20535;-74
2023/03/12 07:10:44;;;;;;;2.63;1.25;;;22.10;53.70;;;;;;5030383;28;20045;-75
2023/03/12 07:13:11;;;;;;;2.97;1.23;;;22.00;54.50;;;;;;5027857;28;20509;-75
2023/03/12 07:15:37;;;;;;;1.45;1.00;;;21.80;47.20;;;;;;5030694;28;20755;-76
2023/03/12 07:18:04;;;;;;;1.48;1.25;;;21.80;50.30;;;;;;5030339;28;20393;-74
2023/03/12 07:20:31;;;;;;;3.83;1.88;;;21.70;48.00;;;;;;5028257;28;20018;-75
2023/03/12 07:22:59;;;;;;;2.30;1.30;;;21.60;45.30;;;;;;5029702;28;20765;-76
2023/03/12 07:25:25;;;;;;;1.75;1.05;;;21.30;48.30;;;;;;5027728;28;20447;-73
2023/03/12 07:27:51;;;;;;;1.20;1.10;;;21.20;48.90;;;;;;5029754;28;20036;-72
2023/03/12 07:30:17;;;;;;;1.27;1.15;;;21.10;50.80;;;;;;5030432;28;20026;-76
2023/03/12 07:32:43;;;;;;;0.98;0.98;;;21.20;54.00;;;;;;5031223;28;20430;-75
2023/03/12 07:35:09;;;;;;;1.50;0.90;;;21.30;51.90;;;;;;5030607;28;20036;-75
2023/03/12 07:37:35;;;;;;;2.00;1.25;;;21.20;51.90;;;;;;5029906;28;20505;-74
2023/03/12 07:40:06;;;;;;;2.20;1.02;;;21.20;55.60;;;;;;5031071;28;20037;-74
2023/03/12 07:42:32;;;;;;;2.65;1.48;;;21.30;57.10;;;;;;5030812;28;20186;-74
2023/03/12 07:44:59;;;;;;;2.45;1.40;;;21.50;58.10;;;;;;5029581;28;20615;-75
2023/03/12 07:47:25;;;;;;;2.28;1.00;;;21.60;56.20;;;;;;5030994;28;20069;-75
2023/03/12 07:49:52;;;;;;;1.52;1.13;;;21.60;57.40;;;;;;5048409;28;20033;-73
2023/03/12 07:52:19;;;;;;;3.90;1.20;;;21.60;58.20;;;;;;5048326;28;20052;-74
2023/03/12 07:54:45;;;;;;;2.50;0.85;;;21.50;59.90;;;;;;5048384;28;20040;-74
2023/03/12 07:57:11;;;;;;;3.30;1.60;;;21.70;55.90;;;;;;5048562;28;20059;-74
2023/03/12 07:59:37;;;;;;;1.10;1.00;;;21.70;55.30;;;;;;5048342;28;20096;-73
2023/03/12 08:02:03;;;;;;;2.47;1.00;;;21.70;57.70;;;;;;5048182;28;20041;-72
2023/03/12 08:04:29;;;;;;;2.83;1.80;;;21.70;57.00;;;;;;5047741;28;20045;-72
2023/03/12 08:06:55;;;;;;;1.35;1.08;;;21.70;55.90;;;;;;5048127;28;20107;-73
2023/03/12 08:09:21;;;;;;;1.15;1.13;;;21.60;54.90;;;;;;5049638;28;20481;-75
2023/03/12 08:11:47;;;;;;;1.48;1.20;;;21.60;55.60;;;;;;5035657;28;20076;-73
2023/03/12 08:14:14;;;;;;;2.58;1.45;;;21.60;59.30;;;;;;5052567;28;20408;-71
2023/03/12 08:16:39;;;;;;;1.35;1.23;;;21.80;53.70;;;;;;5052238;28;20045;-71
2023/03/12 08:19:05;;;;;;;2.80;1.48;;;21.60;60.60;;;;;;5052487;28;20044;-70
2023/03/12 08:21:31;;;;;;;2.60;1.15;;;21.70;56.50;;;;;;5038125;28;20112;-71
2023/03/12 08:23:57;;;;;;;4.80;1.83;;;21.60;59.50;;;;;;5034953;28;20128;-70
2023/03/12 08:26:23;;;;;;;1.95;1.30;;;21.80;56.70;;;;;;5035173;28;20037;-70
2023/03/12 08:28:49;;;;;;;1.75;1.50;;;22.00;59.10;;;;;;5035089;28;20021;-71
2023/03/12 08:31:15;;;;;;;2.13;1.42;;;21.90;55.30;;;;;;5034702;28;20037;-71
2023/03/12 08:33:42;;;;;;;1.35;1.25;;;22.00;58.50;;;;;;5034404;28;20068;-71
2023/03/12 08:36:09;;;;;;;3.55;1.55;;;22.00;56.00;;;;;;5034667;28;20128;-72
2023/03/12 08:38:35;;;;;;;3.88;1.70;;;21.90;56.40;;;;;;5034519;28;20040;-70
2023/03/12 08:41:02;;;;;;;3.65;1.45;;;21.90;51.90;;;;;;5034583;28;20045;-71
2023/03/12 08:43:28;;;;;;;2.55;1.15;;;21.90;54.80;;;;;;5034337;28;20116;-70
2023/03/12 08:45:59;;;;;;;5.13;1.42;;;21.70;54.00;;;;;;5034220;28;20050;-71
2023/03/12 08:48:26;;;;;;;0.82;0.80;;;22.00;57.80;;;;;;5034472;28;20038;-71
2023/03/12 08:50:55;;;;;;;1.60;1.02;;;21.90;57.90;;;;;;5034351;28;20080;-72
2023/03/12 08:53:22;;;;;;;3.30;1.60;;;21.80;57.40;;;;;;5034182;28;20133;-72
2023/03/12 08:55:48;;;;;;;1.52;1.35;;;21.90;54.90;;;;;;5034407;28;20055;-71
2023/03/12 08:58:14;;;;;;;1.48;1.38;;;21.80;53.10;;;;;;5032195;28;20493;-70
2023/03/12 09:00:40;;;;;;;1.48;1.38;;;21.80;49.60;;;;;;5034086;28;20125;-70
2023/03/12 09:03:06;;;;;;;2.80;1.15;;;21.80;55.30;;;;;;5031865;28;20049;-72
2023/03/12 09:05:32;;;;;;;1.73;1.30;;;21.80;52.40;;;;;;5034035;28;20041;-72
2023/03/12 09:07:58;;;;;;;1.40;1.17;;;21.90;57.30;;;;;;5032795;28;20044;-70
2023/03/12 09:10:26;;;;;;;5.57;1.00;;;21.90;56.70;;;;;;5034139;28;20041;-69
2023/03/12 09:12:52;;;;;;;4.45;1.27;;;21.80;57.20;;;;;;5034063;28;20029;-70
2023/03/12 09:15:18;;;;;;;1.00;0.80;;;22.00;55.90;;;;;;5033976;28;20072;-71
2023/03/12 09:17:44;;;;;;;2.70;0.90;;;21.90;54.20;;;;;;5033778;28;20409;-70
2023/03/12 09:20:13;;;;;;;1.92;1.35;;;21.90;56.00;;;;;;5031999;28;20033;-70
2023/03/12 09:22:40;;;;;;;3.75;1.33;;;22.00;53.00;;;;;;5033558;28;20030;-70
2023/03/12 09:25:08;;;;;;;3.80;1.35;;;22.10;55.70;;;;;;5033990;28;20112;-69
2023/03/12 09:27:38;;;;;;;3.13;1.55;;;22.00;54.20;;;;;;5033761;28;20030;-72
2023/03/12 09:30:06;;;;;;;1.52;1.27;;;22.00;52.10;;;;;;5034127;28;20031;-71
2023/03/12 09:32:33;;;;;;;4.32;1.65;;;22.00;55.80;;;;;;5033279;28;20040;-67
2023/03/12 09:34:59;;;;;;;4.13;1.70;;;22.00;50.90;;;;;;5031122;28;20049;-70
2023/03/12 09:37:25;;;;;;;1.27;1.17;;;22.00;60.60;;;;;;5047915;28;20405;-68
2023/03/12 09:39:52;;;;;;;4.10;1.15;;;21.90;59.10;;;;;;5033476;28;20117;-69
2023/03/12 09:42:34;;;;;;;2.63;1.20;;;22.00;52.10;;;;;;5033526;28;20047;-70
2023/03/12 09:45:04;;;;;;;3.20;1.40;;;22.20;55.90;;;;;;5033447;28;20026;-69
2023/03/12 09:47:36;;;;;;;2.85;1.13;;;22.10;58.30;;;;;;5033325;28;20069;-75
2023/03/12 09:50:18;;;;;;;1.80;1.30;;;22.20;60.50;;;;;;5032966;28;20068;-70
2023/03/12 09:52:54;;;;;;;1.48;1.38;;;22.30;60.30;;;;;;5033149;28;20575;-71
2023/03/12 09:55:22;;;;;;;2.42;1.15;;;22.40;59.20;;;;;;5033188;28;20036;-71
2023/03/12 09:57:50;;;;;;;2.60;1.45;;;22.40;62.10;;;;;;5032361;28;20124;-71
2023/03/12 10:00:22;;;;;;;3.45;2.03;;;22.50;58.10;;;;;;5033076;28;20040;-73
2023/03/12 10:03:08;;;;;;;0.90;0.90;;;22.50;54.40;;;;;;5032707;28;20072;-72
2023/03/12 10:05:57;;;;;;;3.55;1.25;;;22.40;55.80;;;;;;5032730;28;20057;-71
2023/03/12 10:08:35;;;;;;;3.33;1.83;;;22.60;49.90;;;;;;4990917;28;20482;-71
2023/03/12 10:11:17;;;;;;;5.90;1.98;;;22.90;47.70;;;;;;4990935;28;20073;-72
2023/03/12 10:13:59;;;;;;;6.55;2.53;;;23.00;50.10;;;;;;4990878;28;20053;-71
2023/03/12 10:16:55;;;;;;;3.58;2.13;;;23.30;44.20;;;;;;4974784;28;20038;-69
2023/03/12 10:19:46;;;;;;;3.22;2.15;;;23.50;40.80;;;;;;4991190;28;20585;-72
2023/03/12 10:22:17;;;;;;;2.33;1.60;;;23.50;44.50;;;;;;4990891;28;20035;-72
2023/03/12 10:25:00;;;;;;;3.72;2.03;;;23.80;54.40;;;;;;4990607;28;20530;-73
2023/03/12 10:27:29;;;;;;;2.65;1.92;;;24.10;56.80;;;;;;4990756;28;20042;-72
2023/03/12 10:29:56;;;;;;;4.32;2.70;;;24.00;57.10;;;;;;4990699;28;20030;-73
2023/03/12 10:32:25;;;;;;;1.73;1.35;;;24.10;55.60;;;;;;4989706;28;20042;-74
2023/03/12 10:34:53;;;;;;;4.97;1.92;;;24.10;55.50;;;;;;4990480;28;20030;-74
2023/03/12 10:37:27;;;;;;;4.85;1.73;;;24.20;56.50;;;;;;4990722;28;20039;-73
2023/03/12 10:39:54;;;;;;;5.22;1.42;;;24.10;57.60;;;;;;4990494;28;20426;-71
2023/03/12 10:42:26;;;;;;;3.08;2.17;;;24.20;56.20;;;;;;4990511;28;20038;-70
2023/03/12 10:45:20;;;;;;;2.17;1.80;;;24.10;46.90;;;;;;5001298;28;20103;-70
2023/03/12 10:47:52;;;;;;;4.35;1.75;;;24.20;40.70;;;;;;5031756;28;20021;-70
2023/03/12 10:50:21;;;;;;;10.10;2.13;;;24.10;40.60;;;;;;5031154;28;20099;-71
2023/03/12 10:52:50;;;;;;;2.45;1.52;;;24.00;38.70;;;;;;5031970;28;20505;-70
2023/03/12 10:55:21;;;;;;;1.77;1.63;;;24.00;39.80;;;;;;5032160;28;20454;-70
2023/03/12 10:57:49;;;;;;;2.70;1.77;;;24.20;51.40;;;;;;5030744;28;20068;-71
2023/03/12 11:00:27;;;;;;;3.03;1.40;;;24.10;51.20;;;;;;5031854;28;20068;-70
2023/03/12 11:03:04;;;;;;;1.50;1.40;;;24.30;56.00;;;;;;5031828;28;20113;-72
2023/03/12 11:05:34;;;;;;;2.95;1.80;;;24.20;57.30;;;;;;5029436;28;20064;-68
2023/03/12 11:08:02;;;;;;;2.67;1.30;;;24.30;58.50;;;;;;5029415;28;20038;-69
2023/03/12 11:10:46;;;;;;;2.33;1.45;;;24.30;55.90;;;;;;5029055;28;20144;-68
2023/03/12 11:13:30;;;;;;;3.22;1.50;;;24.20;57.30;;;;;;5029222;28;20076;-69
2023/03/12 11:16:20;;;;;;;1.73;1.33;;;24.20;56.50;;;;;;5029336;28;20466;-70
2023/03/12 11:18:58;;;;;;;2.67;1.40;;;24.10;51.80;;;;;;4970166;28;20173;-68
2023/03/12 11:21:25;;;;;;;4.13;1.75;;;24.10;54.40;;;;;;4970444;28;20502;-69
2023/03/12 11:24:12;;;;;;;1.50;1.40;;;24.10;53.40;;;;;;4970077;28;20526;-69
2023/03/12 11:26:43;;;;;;;2.22;1.30;;;24.10;56.10;;;;;;4970395;28;20050;-70
2023/03/12 11:29:24;;;;;;;2.85;1.30;;;24.10;56.40;;;;;;4970070;28;20031;-70
2023/03/12 11:32:11;;;;;;;2.45;1.20;;;24.00;56.20;;;;;;4970256;28;20535;-72
2023/03/12 11:34:38;;;;;;;5.55;2.08;;;24.00;54.60;;;;;;4969974;28;20058;-71
2023/03/12 11:37:33;;;;;;;1.38;1.27;;;24.50;52.80;;;;;;4970265;28;20519;-70
2023/03/12 11:40:11;;;;;;;2.20;1.50;;;24.60;39.80;;;;;;4970095;28;20086;-71
2023/03/12 11:42:56;;;;;;;2.17;1.23;;;24.60;38.20;;;;;;4969669;28;20122;-72
2023/03/12 11:45:22;;;;;;;4.25;1.90;;;24.50;36.20;;;;;;4970192;28;20563;-72
2023/03/12 11:48:07;;;;;;;1.67;1.30;;;24.30;39.70;;;;;;4970122;28;20125;-71
2023/03/12 11:50:54;;;;;;;2.47;1.27;;;24.30;34.60;;;;;;4969939;28;20531;-71
2023/03/12 11:53:35;;;;;;;4.50;1.88;;;24.20;38.20;;;;;;4964575;28;20039;-70
2023/03/12 11:56:13;;;;;;;4.63;2.85;;;24.30;37.60;;;;;;4996120;28;20053;-71
2023/03/12 11:58:52;;;;;;;5.13;1.38;;;24.30;39.80;;;;;;5044962;28;20120;-73
2023/03/12 12:01:30;;;;;;;2.63;1.98;;;24.50;49.40;;;;;;5030631;28;20433;-73
2023/03/12 12:04:06;;;;;;;1.95;1.45;;;24.60;50.20;;;;;;5028437;28;20068;-71
2023/03/12 12:06:59;;;;;;;3.05;1.38;;;24.60;53.70;;;;;;5028213;28;20037;-71
2023/03/12 12:09:25;;;;;;;;;;;24.70;52.00;;;;;;5028833;28;20485;-70
2023/03/12 12:12:19;;;;;;;1.65;1.55;;;24.50;53.50;;;;;;5012020;28;19917;-70
2023/03/12 12:15:15;;;;;;;1.30;1.20;;;24.50;48.90;;;;;;5027865;28;20127;-71
2023/03/12 12:18:26;;;;;;;1.90;1.25;;;24.40;51.70;;;;;;5028571;28;20053;-70
2023/03/12 12:21:23;;;;;;;1.80;1.20;;;24.30;50.30;;;;;;4996046;28;20043;-70
2023/03/12 12:24:33;;;;;;;1.05;1.00;;;24.30;56.50;;;;;;4931195;29;20088;-70
2023/03/12 12:27:21;;;;;;;1.33;1.10;;;24.40;56.20;;;;;;4874581;29;20156;-70
2023/03/12 12:29:50;;;;;;;1.42;1.08;;;24.20;54.00;;;;;;4874562;29;20057;-70
2023/03/12 12:32:42;;;;;;;2.10;1.25;;;24.10;57.30;;;;;;4874864;29;20458;-70
2023/03/12 12:35:34;;;;;;;0.35;0.35;;;24.20;55.50;;;;;;4855677;29;20076;-70
2023/03/12 12:38:29;;;;;;;1.37;1.20;;;24.10;57.60;;;;;;4838939;29;20096;-70
2023/03/12 12:41:02;;;;;;;3.75;1.55;;;24.10;55.00;;;;;;4861265;29;20291;-70
2023/03/12 12:43:34;;;;;;;3.05;1.40;;;24.10;56.40;;;;;;4868747;29;20108;-70
2023/03/12 12:46:05;;;;;;;1.20;1.13;;;24.00;56.80;;;;;;4874335;29;20045;-72
2023/03/12 12:49:02;;;;;;;2.65;1.30;;;24.10;57.30;;;;;;4874166;29;20064;-71
2023/03/12 12:51:43;;;;;;;4.55;1.38;;;23.90;58.50;;;;;;4844179;29;20516;-71
2023/03/12 12:54:11;;;;;;;1.00;0.80;;;24.10;55.80;;;;;;4844640;29;20046;-72
2023/03/12 12:56:51;;;;;;;1.25;1.00;;;23.90;56.80;;;;;;4840293;29;20472;-71
2023/03/12 12:59:58;;;;;;;2.28;1.08;;;24.00;56.30;;;;;;4840686;29;20495;-72
2023/03/12 13:02:29;;;;;;;2.03;1.27;;;23.90;52.30;;;;;;4874285;29;20521;-71